Airfield :
LOGIN :

Register | Disclaimer

   EN    FR    IT 

 










Legend :    VFR   Marginal VFR   IFR   Intensive IFR   Very Intensive IFR
Visi :
Ceiling :
>= 8 km
>= 3000ft
5 to 8 km
1000 to 3000 ft
1500m to 5 km
500 to 1000 ft
800 to 1500m
200 to 500 ft
< 800m
< 200 ft
Symbols :   Thunderstorms  Fog  Heavy snow  Heavy precipitations  Wind > 20 kt
SIGMETs :     Misc.  Thunderstorms  Icing  Turbulence  Mountain Waves  Volcanic Ashes







- Airport Elevation : 36 ft
- IATA code : LTQ
- Download approach charts


LFAT - Le Touquet

CURRENT METAR :
  • 251030Z AUTO 26008KT 220V290 CAVOK 25/19 Q1015 NOSIG

EXPIRED METARs :
  • 251000Z AUTO VRB02KT CAVOK 27/21 Q1015 NOSIG
  • 250930Z AUTO 14003KT 090V190 CAVOK 25/19 Q1015 BECMG 26010KT
  • 250900Z AUTO 08005KT 040V130 CAVOK 25/19 Q1015 BECMG 26010KT
  • 250830Z AUTO 07005KT 030V120 CAVOK 24/18 Q1015 BECMG 26010KT
  • 250800Z AUTO 08004KT 030V140 CAVOK 23/18 Q1015 BECMG 26010KT

TAF TAF LFAT
Valid from the 25 at 09:00 until the 25 at 18:00 UTC


250800Z 2509/2518 09005KT CAVOK
BECMG 2509/2512 26010KT
ATIS : +33 3 21 06 62 84
No reported NOTAMs for that airfield.



MET'MAP, your aeronautical weather chart ! - Copyright ORBIFLY December 2007 - Disclaimer

ORBIFLY MET'MAP TEAM :

Programming & Development : Alexandra Zaïnal
Concept & Development : Baudouin d'Aumeries
Co-Development & Prog : Marc-Olivier Méhu
Technical & hardware support : Manuel Goepfert

Contact : metmap@orbifly.com




SOURCES & CREDITS :

   NOAA